Arklow Mill — EIJD9 — position and weather

sailwx.info

Track history (hours):
 
Tides and Currents Weather Stations Pressure Air Temp Water Temp Dewpoint Dewpoint Depression Visibility Wind Speed Wind Dir Waves Ship Positions

Arklow Mill

Last reported at 2017-Jun-26 11:18 UTC. Time now 2017-Jun-26 19:02 UTC.
Position N 54°03' W 006°08'.

Length 137 m; draft 8.4 m.

Type: Ship. MMSI: 250002022.

Date/timePositionNaut miles runAvg speedWind from/ knotsBaromVisibWave heightAir tempDewpointWater temp
2017-Jun-26 11:18N 54°03' W 006°08'3 9.9
2017-Jun-26 11:00N 54°01' W 006°04'3 5.4
2017-Jun-26 10:27N 53°59' W 005°60'0 0.0
2017-Jun-26 09:38N 53°59' W 005°60'0 0.1
2017-Jun-26 08:11N 53°59' W 005°60'0 0.0
2017-Jun-26 07:56N 53°59' W 005°60'0 0.0
2017-Jun-26 07:29N 53°59' W 005°60'0 0.0
2017-Jun-26 06:47N 53°59' W 005°60'0 0.0
2017-Jun-26 04:53N 53°59' W 005°60'0 0.0
2017-Jun-26 04:23N 53°59' W 005°60'0 0.0
2017-Jun-26 03:59N 53°59' W 005°60'0 0.0
2017-Jun-26 01:53N 53°59' W 005°60'0 0.0
2017-Jun-25 16:38N 53°59' W 005°60'0 2.3
2017-Jun-25 16:29N 53°59' W 005°60'5 8.8
2017-Jun-25 15:53N 53°54' W 005°58'611.1
2017-Jun-25 15:23N 53°49' W 005°54'13612.0
2017-Jun-25 04:06N 51°33' W 005°50'211.0
2017-Jun-25 03:57N 51°31' W 005°50'511.0
2017-Jun-25 03:29N 51°26' W 005°50'3610.8
2017-Jun-25 00:09N 50°50' W 005°51'210.7
2017-Jun-25 00:00N 50°48' W 005°51'610.5
2017-Jun-24 23:29N 50°43' W 005°52'510.6
2017-Jun-24 23:00N 50°38' W 005°52'610.6
2017-Jun-24 22:27N 50°32' W 005°52'510.4
2017-Jun-24 22:00N 50°27' W 005°52'610.2
2017-Jun-24 21:24N 50°21' W 005°53'71 8.1
2017-Jun-24 12:40N 49°55' W 004°10'412.7
2017-Jun-24 12:19N 49°56' W 004°04'512.7
2017-Jun-24 11:56N 49°56' W 003°56'512.6
2017-Jun-24 11:30N 49°56' W 003°48'612.2
2017-Jun-24 11:00N 49°56' W 003°38'611.9
2017-Jun-24 10:30N 49°57' W 003°29'611.3
2017-Jun-24 10:00N 49°58' W 003°20'510.5
2017-Jun-24 09:30N 49°59' W 003°12'510.0
2017-Jun-24 09:00N 50°01' W 003°05'510.0
2017-Jun-24 08:30N 50°01' W 002°57'5 9.5
2017-Jun-24 08:00N 50°02' W 002°50'5 9.1
2017-Jun-24 07:30N 50°03' W 002°43'17 8.7
2017-Jun-24 05:31N 50°04' W 002°16'810.0
2017-Jun-24 04:42N 50°00' W 002°04'210.9
2017-Jun-24 04:29N 49°60' W 002°01'611.6
2017-Jun-24 04:00N 49°57' W 001°53'612.2
2017-Jun-24 03:30N 49°55' W 001°45'713.1
2017-Jun-24 03:00N 49°52' W 001°35'714.0
2017-Jun-24 02:30N 49°50' W 001°25'815.1
2017-Jun-24 01:58N 49°48' W 001°13'714.6
2017-Jun-24 01:30N 49°45' W 001°03'713.9
2017-Jun-24 01:00N 49°42' W 000°54'713.5
2017-Jun-24 00:30N 49°39' W 000°44'612.8
2017-Jun-24 00:00N 49°37' W 000°35'612.5
2017-Jun-23 23:31N 49°35' W 000°26'611.7
2017-Jun-23 23:01N 49°32' W 000°18'611.2
2017-Jun-23 22:31N 49°30' W 000°10'510.7
2017-Jun-23 22:00N 49°28' W 000°02'5 9.2
2017-Jun-23 21:31N 49°26' E 000°04'510.5
2017-Jun-23 21:00N 49°26' E 000°12'611.4
2017-Jun-23 20:30N 49°26' E 000°21'510.0
2017-Jun-23 20:00N 49°28' E 000°28'3 6.4
2017-Jun-23 19:30N 49°28' E 000°33'4 7.2
2017-Jun-23 19:01N 49°26' E 000°38'10 5.8
2017-Jun-23 17:21N 49°24' E 000°52'5 0.2
2017-Jun-22 08:35N 49°22' E 000°59'7 9.3
2017-Jun-22 07:49N 49°28' E 000°56'5 5.9
2017-Jun-22 06:54N 49°26' E 000°48'511.6
2017-Jun-22 06:30N 49°31' E 000°46'5 8.8
2017-Jun-22 05:59N 49°28' E 000°40'5 9.8
2017-Jun-22 05:30N 49°28' E 000°33'510.8
2017-Jun-22 05:01N 49°27' E 000°25'713.7
2017-Jun-22 04:30N 49°26' E 000°14'713.7
2017-Jun-22 04:00N 49°26' E 000°04'612.2
2017-Jun-22 03:30N 49°29' W 000°05'3 4.6
2017-Jun-22 02:58N 49°28' W 000°09'0 0.1
2017-Jun-22 02:28N 49°28' W 000°09'0 0.0
2017-Jun-22 01:58N 49°28' W 000°09'0 0.0
2017-Jun-22 01:28N 49°28' W 000°09'0 0.0
2017-Jun-22 00:58N 49°28' W 000°09'0 0.0
2017-Jun-22 00:28N 49°28' W 000°09'0 0.0
2017-Jun-21 23:58N 49°28' W 000°09'0 0.0
2017-Jun-21 23:28N 49°28' W 000°09'0 0.0
2017-Jun-21 22:58N 49°28' W 000°09'0 0.0
2017-Jun-21 22:28N 49°28' W 000°09'0 0.1
2017-Jun-21 21:58N 49°28' W 000°09'0 0.1
2017-Jun-21 21:28N 49°28' W 000°08'0 0.1
2017-Jun-21 20:58N 49°28' W 000°08'0 0.1
2017-Jun-21 20:28N 49°28' W 000°08'0 0.0
2017-Jun-21 19:58N 49°28' W 000°08'0 0.0
2017-Jun-21 19:28N 49°28' W 000°08'0 0.0
2017-Jun-21 18:58N 49°28' W 000°08'0 0.0
2017-Jun-21 18:28N 49°28' W 000°08'0 0.0
2017-Jun-21 17:58N 49°28' W 000°08'0 0.0
2017-Jun-21 17:25N 49°28' W 000°08'0 0.0
2017-Jun-21 16:58N 49°28' W 000°08'0 0.0
2017-Jun-21 16:28N 49°28' W 000°08'0 0.2
2017-Jun-21 15:58N 49°28' W 000°08'0 0.1
2017-Jun-21 15:28N 49°28' W 000°08'0 0.1
2017-Jun-21 14:58N 49°28' W 000°09'0 0.0
2017-Jun-21 14:28N 49°28' W 000°09'0 0.0
2017-Jun-21 13:28N 49°28' W 000°09'0 0.0
2017-Jun-21 12:58N 49°28' W 000°09'0 0.0
2017-Jun-21 12:22N 49°28' W 000°09'0 0.2
2017-Jun-21 12:00N 49°28' W 000°09'2 4.7
2017-Jun-21 11:31N 49°30' W 000°12'611.5
2017-Jun-21 11:00N 49°35' W 000°12'612.1
2017-Jun-21 10:30N 49°41' W 000°11'611.8
2017-Jun-21 10:00N 49°47' W 000°11'611.9
2017-Jun-21 09:31N 49°53' W 000°09'611.8
2017-Jun-21 09:00N 49°59' W 000°08'611.8
2017-Jun-21 08:30N 50°05' W 000°07'611.6
2017-Jun-21 08:00N 50°11' W 000°07'611.7
2017-Jun-21 07:30N 50°17' W 000°07'611.7
2017-Jun-21 07:01N 50°22' W 000°05'510.3
2017-Jun-21 06:31N 50°27' W 000°03'611.9
2017-Jun-21 06:00N 50°29' E 000°06'510.3
2017-Jun-21 05:31N 50°30' E 000°14'510.5
2017-Jun-21 05:01N 50°32' E 000°21'611.1
2017-Jun-21 04:30N 50°33' E 000°30'611.5
2017-Jun-21 04:01N 50°35' E 000°38'612.4
2017-Jun-21 03:30N 50°39' E 000°46'612.9
2017-Jun-21 03:01N 50°43' E 000°54'1213.4
2017-Jun-21 02:07N 50°51' E 001°09'313.3
2017-Jun-21 01:52N 50°52' E 001°13'513.2
2017-Jun-21 01:30N 50°56' E 001°19'713.2
2017-Jun-21 01:00N 51°01' E 001°26'612.1
2017-Jun-21 00:31N 51°05' E 001°33'611.1
2017-Jun-21 00:00N 51°08' E 001°40'611.9
2017-Jun-20 23:30N 51°04' E 001°46'5 9.8
2017-Jun-20 23:00N 51°02' E 001°53'713.9
2017-Jun-20 22:30N 51°03' E 002°04'713.9
2017-Jun-20 22:00N 51°04' E 002°15'3 6.4
2017-Jun-20 21:30N 51°03' E 002°20'0 0.0
2017-Jun-20 21:00N 51°03' E 002°20'1 1.0
2017-Jun-20 20:30N 51°03' E 002°20'2 3.3
2017-Jun-20 20:00N 51°03' E 002°17'0 0.0
2017-Jun-20 19:30N 51°03' E 002°17'0 0.0
2017-Jun-20 18:57N 51°03' E 002°17'0 0.0
2017-Jun-20 18:30N 51°03' E 002°17'0 0.0
2017-Jun-20 18:00N 51°03' E 002°17'0 0.0
2017-Jun-20 17:30N 51°03' E 002°17'0 0.0
2017-Jun-20 17:00N 51°03' E 002°17'0 0.0
2017-Jun-20 16:30N 51°03' E 002°17'0 0.0
2017-Jun-20 15:57N 51°03' E 002°17'0 0.0
2017-Jun-20 15:30N 51°03' E 002°17'0 0.0
2017-Jun-20 15:00N 51°03' E 002°17'0 0.0
2017-Jun-20 13:57N 51°03' E 002°17'0 0.0
2017-Jun-20 13:30N 51°03' E 002°17'0 0.0
2017-Jun-20 12:57N 51°03' E 002°17'0 0.0
2017-Jun-20 12:30N 51°03' E 002°17'0 0.0
2017-Jun-20 11:57N 51°03' E 002°17'0 0.0
2017-Jun-20 11:30N 51°03' E 002°17'0 0.0
2017-Jun-20 11:00N 51°03' E 002°17'0 0.0
2017-Jun-20 10:30N 51°03' E 002°17'0 0.0
2017-Jun-20 10:00N 51°03' E 002°17'0 0.0
2017-Jun-20 09:30N 51°03' E 002°17'0 0.0
2017-Jun-20 09:00N 51°03' E 002°17'0 0.0
2017-Jun-20 08:30N 51°03' E 002°17'0 0.0
2017-Jun-20 07:57N 51°03' E 002°17'0 0.0
2017-Jun-20 07:30N 51°03' E 002°17'0 0.0
2017-Jun-20 07:00N 51°03' E 002°17'0 0.0
2017-Jun-20 06:30N 51°03' E 002°17'0 0.0
2017-Jun-20 06:00N 51°03' E 002°17'0 0.0
2017-Jun-20 05:30N 51°03' E 002°17'0 0.0
2017-Jun-20 05:00N 51°03' E 002°17'0 0.0
2017-Jun-20 04:30N 51°03' E 002°17'0 0.0
2017-Jun-20 04:00N 51°03' E 002°17'0 0.0
2017-Jun-20 03:27N 51°03' E 002°17'0 0.0
2017-Jun-20 03:00N 51°03' E 002°17'0 0.0
2017-Jun-20 02:30N 51°03' E 002°17'0 0.0
2017-Jun-20 02:00N 51°03' E 002°17'0 0.0
2017-Jun-20 01:30N 51°03' E 002°17'0 0.0
2017-Jun-20 00:57N 51°03' E 002°17'0 0.0
2017-Jun-20 00:30N 51°03' E 002°17'0 0.0
2017-Jun-20 00:00N 51°03' E 002°17'0 0.0
2017-Jun-19 23:30N 51°03' E 002°17'0 0.0
2017-Jun-19 23:00N 51°03' E 002°17'0 0.0
2017-Jun-19 22:30N 51°03' E 002°17'0 0.0
2017-Jun-19 22:00N 51°03' E 002°17'0 0.0
2017-Jun-19 21:30N 51°03' E 002°17'0 0.0
2017-Jun-19 21:00N 51°03' E 002°17'0 0.0
2017-Jun-19 20:30N 51°03' E 002°17'0 0.0
2017-Jun-19 19:57N 51°03' E 002°17'0 0.0
2017-Jun-19 19:30N 51°03' E 002°17'0 0.0
2017-Jun-19 19:00N 51°03' E 002°17'1 2.4
2017-Jun-19 18:30N 51°03' E 002°19'1 2.0
2017-Jun-19 18:00N 51°03' E 002°21'1 2.7
2017-Jun-19 17:30N 51°04' E 002°19'612.1
2017-Jun-19 17:00N 51°03' E 002°09'3 5.1
2017-Jun-19 16:28N 51°00' E 002°11'0 0.0
2017-Jun-19 15:58N 51°00' E 002°11'0 0.0
2017-Jun-19 15:29N 51°00' E 002°11'0 0.0
2017-Jun-19 14:58N 51°00' E 002°11'0 0.0
2017-Jun-19 13:58N 51°00' E 002°11'0 0.0
2017-Jun-19 13:28N 51°00' E 002°11'0 0.0
2017-Jun-19 12:58N 51°00' E 002°11'0 0.0
2017-Jun-19 12:28N 51°00' E 002°11'0 0.0
2017-Jun-19 11:58N 51°00' E 002°11'0 0.0
2017-Jun-19 11:28N 51°00' E 002°11'0 0.0
2017-Jun-19 10:58N 51°00' E 002°11'0 0.0
2017-Jun-19 10:28N 51°00' E 002°11'0 0.0
2017-Jun-19 09:59N 51°00' E 002°11'0 0.0
2017-Jun-19 09:28N 51°00' E 002°11'0 0.0
2017-Jun-19 08:58N 51°00' E 002°11'0 0.0
2017-Jun-19 08:28N 51°00' E 002°11'0 0.0
2017-Jun-19 07:58N 51°00' E 002°11'0 0.0
2017-Jun-19 07:28N 51°00' E 002°11'0 0.0
2017-Jun-19 06:58N 51°00' E 002°11'0 0.0
2017-Jun-19 06:28N 51°00' E 002°11'0 0.0
2017-Jun-19 05:58N 51°00' E 002°11'0 0.0
2017-Jun-19 05:28N 51°00' E 002°11'0 0.0
2017-Jun-19 04:58N 51°00' E 002°11'0 0.0
2017-Jun-19 04:28N 51°00' E 002°11'0 0.0
2017-Jun-19 03:58N 51°00' E 002°11'0 0.0
2017-Jun-19 03:28N 51°00' E 002°11'0 0.0
2017-Jun-19 02:58N 51°00' E 002°11'0 0.0
2017-Jun-19 02:28N 51°00' E 002°11'0 0.0
2017-Jun-19 01:58N 51°00' E 002°11'0 0.0
2017-Jun-19 01:28N 51°00' E 002°11'0 0.0
2017-Jun-19 00:58N 51°00' E 002°11'0 0.0
2017-Jun-19 00:28N 51°00' E 002°11'0 0.0
2017-Jun-18 23:58N 51°00' E 002°11'0 0.0
2017-Jun-18 23:28N 51°00' E 002°11'0 0.0
2017-Jun-18 22:58N 51°00' E 002°11'0 0.0
2017-Jun-18 22:28N 51°00' E 002°11'0 0.0
2017-Jun-18 21:58N 51°00' E 002°11'0 0.0
2017-Jun-18 21:28N 51°00' E 002°11'0 0.0
2017-Jun-18 20:55N 51°00' E 002°11'0 0.0
2017-Jun-18 20:28N 51°00' E 002°11'0 0.0
2017-Jun-18 19:58N 51°00' E 002°11'0 0.0
2017-Jun-18 19:28N 51°00' E 002°11'0 0.0
2017-Jun-18 18:58N 51°00' E 002°11'0 0.0
2017-Jun-18 18:28N 51°00' E 002°11'0 0.0
2017-Jun-18 17:58N 51°00' E 002°11'0 0.0
2017-Jun-18 17:28N 51°00' E 002°11'0 0.0
2017-Jun-18 16:58N 51°00' E 002°11'0 0.0
2017-Jun-18 16:28N 51°00' E 002°11'0 0.0
2017-Jun-18 15:58N 51°00' E 002°11'0 0.0
2017-Jun-18 15:28N 51°00' E 002°11'0 0.0
2017-Jun-18 14:58N 51°00' E 002°11'0 0.0
2017-Jun-18 13:58N 51°00' E 002°11'0 0.0
2017-Jun-18 13:28N 51°00' E 002°11'0 0.0
2017-Jun-18 12:58N 51°00' E 002°11'0 0.0
2017-Jun-18 12:28N 51°00' E 002°11'0 0.0
2017-Jun-18 11:55N 51°00' E 002°11'0 0.0
2017-Jun-18 11:28N 51°00' E 002°11'0 0.0
2017-Jun-18 10:58N 51°00' E 002°11'0 0.0
2017-Jun-18 10:26N 51°00' E 002°11'1 2.9
2017-Jun-18 10:00N 51°02' E 002°10'510.3
2017-Jun-18 09:30N 51°04' E 002°17'2 3.3
2017-Jun-18 08:54N 51°03' E 002°20'1 2.2
2017-Jun-18 08:31N 51°03' E 002°19'0 0.0
2017-Jun-18 07:59N 51°03' E 002°19'0 0.0
2017-Jun-18 07:29N 51°03' E 002°19'0 0.0
2017-Jun-18 06:59N 51°03' E 002°19'0 0.0
2017-Jun-18 06:29N 51°03' E 002°19'0 0.0
2017-Jun-18 05:59N 51°03' E 002°19'0 0.0
2017-Jun-18 05:29N 51°03' E 002°19'0 0.0
2017-Jun-18 04:59N 51°03' E 002°19'0 0.0
2017-Jun-18 04:26N 51°03' E 002°19'0 0.0
2017-Jun-18 03:59N 51°03' E 002°19'0 0.0
2017-Jun-18 03:29N 51°03' E 002°19'0 0.0
2017-Jun-18 02:59N 51°03' E 002°19'0 0.0
2017-Jun-18 02:29N 51°03' E 002°19'0 0.0
2017-Jun-18 01:59N 51°03' E 002°19'0 0.0
2017-Jun-18 01:29N 51°03' E 002°19'0 0.0
2017-Jun-18 00:59N 51°03' E 002°19'0 0.0
2017-Jun-18 00:29N 51°03' E 002°19'0 0.0
2017-Jun-17 23:59N 51°03' E 002°19'0 0.0
2017-Jun-17 23:29N 51°03' E 002°19'0 0.0
2017-Jun-17 22:59N 51°03' E 002°19'0 0.0
2017-Jun-17 22:29N 51°03' E 002°19'0 0.0
2017-Jun-17 21:59N 51°03' E 002°19'0 0.0
2017-Jun-17 21:29N 51°03' E 002°19'0 0.0
2017-Jun-17 20:59N 51°03' E 002°19'0 0.0
2017-Jun-17 20:29N 51°03' E 002°19'0 0.0
2017-Jun-17 19:59N 51°03' E 002°19'0 0.0
2017-Jun-17 19:29N 51°03' E 002°19'0 0.0
2017-Jun-17 18:59N 51°03' E 002°19'0 0.0
2017-Jun-17 18:29N 51°03' E 002°19'0 0.0
2017-Jun-17 17:59N 51°03' E 002°19'0 0.0
2017-Jun-17 17:29N 51°03' E 002°19'0 0.2
2017-Jun-17 17:00N 51°03' E 002°19'1 1.6
2017-Jun-17 16:30N 51°03' E 002°20'0 0.0
2017-Jun-17 16:00N 51°03' E 002°20'1 2.1
2017-Jun-17 15:30N 51°04' E 002°19'612.8
2017-Jun-17 15:00N 51°03' E 002°09'3 2.8
2017-Jun-17 13:59N 51°00' E 002°11'0 0.0
2017-Jun-17 13:29N 51°00' E 002°11'0 0.0
2017-Jun-17 12:59N 51°00' E 002°11'0 0.0
2017-Jun-17 12:28N 51°00' E 002°11'0 0.0
2017-Jun-17 11:58N 51°00' E 002°11'0 0.0
2017-Jun-17 11:29N 51°00' E 002°11'0 0.0
2017-Jun-17 10:59N 51°00' E 002°11'0 0.0
2017-Jun-17 10:28N 51°00' E 002°11'0 0.0
2017-Jun-17 09:58N 51°00' E 002°11'0 0.0
2017-Jun-17 09:29N 51°00' E 002°11'0 0.0
2017-Jun-17 08:58N 51°00' E 002°11'0 0.0
2017-Jun-17 08:29N 51°00' E 002°11'0 0.0
2017-Jun-17 07:58N 51°00' E 002°11'0 0.0
2017-Jun-17 07:29N 51°00' E 002°11'0 0.0
2017-Jun-17 06:59N 51°00' E 002°11'0 0.0
2017-Jun-17 06:29N 51°00' E 002°11'0 0.0
2017-Jun-17 05:59N 51°00' E 002°11'0 0.0
2017-Jun-17 05:29N 51°00' E 002°11'0 0.0
2017-Jun-17 04:59N 51°00' E 002°11'0 0.0
2017-Jun-17 04:28N 51°00' E 002°11'0 0.0
2017-Jun-17 03:59N 51°00' E 002°11'0 0.0
2017-Jun-17 03:28N 51°00' E 002°11'0 0.0
2017-Jun-17 02:55N 51°00' E 002°11'0 0.0
2017-Jun-17 02:29N 51°00' E 002°11'0 0.0
2017-Jun-17 01:59N 51°00' E 002°11'0 0.0
2017-Jun-17 01:28N 51°00' E 002°11'0 0.0
2017-Jun-17 00:58N 51°00' E 002°11'0 0.0
2017-Jun-17 00:28N 51°00' E 002°11'0 0.0
2017-Jun-16 23:58N 51°00' E 002°11'0 0.0
2017-Jun-16 23:28N 51°00' E 002°11'0 0.0
2017-Jun-16 22:58N 51°00' E 002°11'0 0.0
2017-Jun-16 22:25N 51°00' E 002°11'0 0.0
2017-Jun-16 21:55N 51°00' E 002°11'0 0.0
2017-Jun-16 21:28N 51°00' E 002°11'0 0.0
2017-Jun-16 20:58N 51°00' E 002°11'0 0.0
2017-Jun-16 20:26N 51°00' E 002°11'0 0.0
2017-Jun-16 19:58N 51°00' E 002°11'0 0.0
2017-Jun-16 19:28N 51°00' E 002°11'0 0.0
2017-Jun-16 18:58N 51°00' E 002°11'0 0.0
2017-Jun-16 18:10N 51°00' E 002°11'0 0.0
2017-Jun-16 17:55N 51°00' E 002°11'0 0.0
2017-Jun-16 17:28N 51°00' E 002°11'0 0.2
2017-Jun-16 17:00N 51°00' E 002°11'0 0.0
2017-Jun-16 16:30N 51°00' E 002°11'0 0.0
2017-Jun-16 16:00N 51°00' E 002°11'0 0.0
2017-Jun-16 15:30N 51°00' E 002°11'0 0.0
2017-Jun-16 15:00N 51°00' E 002°11'0 0.0
2017-Jun-16 14:00N 51°00' E 002°11'0 0.0
2017-Jun-16 13:30N 51°00' E 002°11'0 0.0
2017-Jun-16 13:00N 51°00' E 002°11'0 0.0
2017-Jun-16 12:30N 51°00' E 002°11'0 0.0
2017-Jun-16 12:00N 51°00' E 002°11'0 0.0
2017-Jun-16 11:30N 51°00' E 002°11'  
Track history (hours):
 
Tides and Currents Weather Stations Pressure Air Temp Water Temp Dewpoint Dewpoint Depression Visibility Wind Speed Wind Dir Waves Ship Positions

Arklow Mill

Last reported at 2017-Jun-26 11:18 UTC. Time now 2017-Jun-26 19:02 UTC.
Position N 54°03' W 006°08'.

Length 137 m; draft 8.4 m.

Type: Ship. MMSI: 250002022.

Date/timePositionNaut miles runAvg speedWind from/ knotsBaromVisibWave heightAir tempDewpointWater temp
2017-Jun-26 11:18N 54°03' W 006°08'3 9.9
2017-Jun-26 11:00N 54°01' W 006°04'3 5.4
2017-Jun-26 10:27N 53°59' W 005°60'0 0.0
2017-Jun-26 09:38N 53°59' W 005°60'0 0.1
2017-Jun-26 08:11N 53°59' W 005°60'0 0.0
2017-Jun-26 07:56N 53°59' W 005°60'0 0.0
2017-Jun-26 07:29N 53°59' W 005°60'0 0.0
2017-Jun-26 06:47N 53°59' W 005°60'0 0.0
2017-Jun-26 04:53N 53°59' W 005°60'0 0.0
2017-Jun-26 04:23N 53°59' W 005°60'0 0.0
2017-Jun-26 03:59N 53°59' W 005°60'0 0.0
2017-Jun-26 01:53N 53°59' W 005°60'0 0.0
2017-Jun-25 16:38N 53°59' W 005°60'0 2.3
2017-Jun-25 16:29N 53°59' W 005°60'5 8.8
2017-Jun-25 15:53N 53°54' W 005°58'611.1
2017-Jun-25 15:23N 53°49' W 005°54'13612.0
2017-Jun-25 04:06N 51°33' W 005°50'211.0
2017-Jun-25 03:57N 51°31' W 005°50'511.0
2017-Jun-25 03:29N 51°26' W 005°50'3610.8
2017-Jun-25 00:09N 50°50' W 005°51'210.7
2017-Jun-25 00:00N 50°48' W 005°51'610.5
2017-Jun-24 23:29N 50°43' W 005°52'510.6
2017-Jun-24 23:00N 50°38' W 005°52'610.6
2017-Jun-24 22:27N 50°32' W 005°52'510.4
2017-Jun-24 22:00N 50°27' W 005°52'610.2
2017-Jun-24 21:24N 50°21' W 005°53'71 8.1
2017-Jun-24 12:40N 49°55' W 004°10'412.7
2017-Jun-24 12:19N 49°56' W 004°04'512.7
2017-Jun-24 11:56N 49°56' W 003°56'512.6
2017-Jun-24 11:30N 49°56' W 003°48'612.2
2017-Jun-24 11:00N 49°56' W 003°38'611.9
2017-Jun-24 10:30N 49°57' W 003°29'611.3
2017-Jun-24 10:00N 49°58' W 003°20'510.5
2017-Jun-24 09:30N 49°59' W 003°12'510.0
2017-Jun-24 09:00N 50°01' W 003°05'510.0
2017-Jun-24 08:30N 50°01' W 002°57'5 9.5
2017-Jun-24 08:00N 50°02' W 002°50'5 9.1
2017-Jun-24 07:30N 50°03' W 002°43'17 8.7
2017-Jun-24 05:31N 50°04' W 002°16'810.0
2017-Jun-24 04:42N 50°00' W 002°04'210.9
2017-Jun-24 04:29N 49°60' W 002°01'611.6
2017-Jun-24 04:00N 49°57' W 001°53'612.2
2017-Jun-24 03:30N 49°55' W 001°45'713.1
2017-Jun-24 03:00N 49°52' W 001°35'714.0
2017-Jun-24 02:30N 49°50' W 001°25'815.1
2017-Jun-24 01:58N 49°48' W 001°13'714.6
2017-Jun-24 01:30N 49°45' W 001°03'713.9
2017-Jun-24 01:00N 49°42' W 000°54'713.5
2017-Jun-24 00:30N 49°39' W 000°44'612.8
2017-Jun-24 00:00N 49°37' W 000°35'612.5
2017-Jun-23 23:31N 49°35' W 000°26'611.7
2017-Jun-23 23:01N 49°32' W 000°18'611.2
2017-Jun-23 22:31N 49°30' W 000°10'510.7
2017-Jun-23 22:00N 49°28' W 000°02'5 9.2
2017-Jun-23 21:31N 49°26' E 000°04'510.5
2017-Jun-23 21:00N 49°26' E 000°12'611.4
2017-Jun-23 20:30N 49°26' E 000°21'510.0
2017-Jun-23 20:00N 49°28' E 000°28'3 6.4
2017-Jun-23 19:30N 49°28' E 000°33'4 7.2
2017-Jun-23 19:01N 49°26' E 000°38'10 5.8
2017-Jun-23 17:21N 49°24' E 000°52'5 0.2
2017-Jun-22 08:35N 49°22' E 000°59'7 9.3
2017-Jun-22 07:49N 49°28' E 000°56'5 5.9
2017-Jun-22 06:54N 49°26' E 000°48'511.6
2017-Jun-22 06:30N 49°31' E 000°46'5 8.8
2017-Jun-22 05:59N 49°28' E 000°40'5 9.8
2017-Jun-22 05:30N 49°28' E 000°33'510.8
2017-Jun-22 05:01N 49°27' E 000°25'713.7
2017-Jun-22 04:30N 49°26' E 000°14'713.7
2017-Jun-22 04:00N 49°26' E 000°04'612.2
2017-Jun-22 03:30N 49°29' W 000°05'3 4.6
2017-Jun-22 02:58N 49°28' W 000°09'0 0.1
2017-Jun-22 02:28N 49°28' W 000°09'0 0.0
2017-Jun-22 01:58N 49°28' W 000°09'0 0.0
2017-Jun-22 01:28N 49°28' W 000°09'0 0.0
2017-Jun-22 00:58N 49°28' W 000°09'0 0.0
2017-Jun-22 00:28N 49°28' W 000°09'0 0.0
2017-Jun-21 23:58N 49°28' W 000°09'0 0.0
2017-Jun-21 23:28N 49°28' W 000°09'0 0.0
2017-Jun-21 22:58N 49°28' W 000°09'0 0.0
2017-Jun-21 22:28N 49°28' W 000°09'0 0.1
2017-Jun-21 21:58N 49°28' W 000°09'0 0.1
2017-Jun-21 21:28N 49°28' W 000°08'0 0.1
2017-Jun-21 20:58N 49°28' W 000°08'0 0.1
2017-Jun-21 20:28N 49°28' W 000°08'0 0.0
2017-Jun-21 19:58N 49°28' W 000°08'0 0.0
2017-Jun-21 19:28N 49°28' W 000°08'0 0.0
2017-Jun-21 18:58N 49°28' W 000°08'0 0.0
2017-Jun-21 18:28N 49°28' W 000°08'0 0.0
2017-Jun-21 17:58N 49°28' W 000°08'0 0.0
2017-Jun-21 17:25N 49°28' W 000°08'0 0.0
2017-Jun-21 16:58N 49°28' W 000°08'0 0.0
2017-Jun-21 16:28N 49°28' W 000°08'0 0.2
2017-Jun-21 15:58N 49°28' W 000°08'0 0.1
2017-Jun-21 15:28N 49°28' W 000°08'0 0.1
2017-Jun-21 14:58N 49°28' W 000°09'0 0.0
2017-Jun-21 14:28N 49°28' W 000°09'0 0.0
2017-Jun-21 13:28N 49°28' W 000°09'0 0.0
2017-Jun-21 12:58N 49°28' W 000°09'0 0.0
2017-Jun-21 12:22N 49°28' W 000°09'0 0.2
2017-Jun-21 12:00N 49°28' W 000°09'2 4.7
2017-Jun-21 11:31N 49°30' W 000°12'611.5
2017-Jun-21 11:00N 49°35' W 000°12'612.1
2017-Jun-21 10:30N 49°41' W 000°11'611.8
2017-Jun-21 10:00N 49°47' W 000°11'611.9
2017-Jun-21 09:31N 49°53' W 000°09'611.8
2017-Jun-21 09:00N 49°59' W 000°08'611.8
2017-Jun-21 08:30N 50°05' W 000°07'611.6
2017-Jun-21 08:00N 50°11' W 000°07'611.7
2017-Jun-21 07:30N 50°17' W 000°07'611.7
2017-Jun-21 07:01N 50°22' W 000°05'510.3
2017-Jun-21 06:31N 50°27' W 000°03'611.9
2017-Jun-21 06:00N 50°29' E 000°06'510.3
2017-Jun-21 05:31N 50°30' E 000°14'510.5
2017-Jun-21 05:01N 50°32' E 000°21'611.1
2017-Jun-21 04:30N 50°33' E 000°30'611.5
2017-Jun-21 04:01N 50°35' E 000°38'612.4
2017-Jun-21 03:30N 50°39' E 000°46'612.9
2017-Jun-21 03:01N 50°43' E 000°54'1213.4
2017-Jun-21 02:07N 50°51' E 001°09'313.3
2017-Jun-21 01:52N 50°52' E 001°13'513.2
2017-Jun-21 01:30N 50°56' E 001°19'713.2
2017-Jun-21 01:00N 51°01' E 001°26'612.1
2017-Jun-21 00:31N 51°05' E 001°33'611.1
2017-Jun-21 00:00N 51°08' E 001°40'611.9
2017-Jun-20 23:30N 51°04' E 001°46'5 9.8
2017-Jun-20 23:00N 51°02' E 001°53'713.9
2017-Jun-20 22:30N 51°03' E 002°04'713.9
2017-Jun-20 22:00N 51°04' E 002°15'3 6.4
2017-Jun-20 21:30N 51°03' E 002°20'0 0.0
2017-Jun-20 21:00N 51°03' E 002°20'1 1.0
2017-Jun-20 20:30N 51°03' E 002°20'2 3.3
2017-Jun-20 20:00N 51°03' E 002°17'0 0.0
2017-Jun-20 19:30N 51°03' E 002°17'0 0.0
2017-Jun-20 18:57N 51°03' E 002°17'0 0.0
2017-Jun-20 18:30N 51°03' E 002°17'0 0.0
2017-Jun-20 18:00N 51°03' E 002°17'0 0.0
2017-Jun-20 17:30N 51°03' E 002°17'0 0.0
2017-Jun-20 17:00N 51°03' E 002°17'0 0.0
2017-Jun-20 16:30N 51°03' E 002°17'0 0.0
2017-Jun-20 15:57N 51°03' E 002°17'0 0.0
2017-Jun-20 15:30N 51°03' E 002°17'0 0.0
2017-Jun-20 15:00N 51°03' E 002°17'0 0.0
2017-Jun-20 13:57N 51°03' E 002°17'0 0.0
2017-Jun-20 13:30N 51°03' E 002°17'0 0.0
2017-Jun-20 12:57N 51°03' E 002°17'0 0.0
2017-Jun-20 12:30N 51°03' E 002°17'0 0.0
2017-Jun-20 11:57N 51°03' E 002°17'0 0.0
2017-Jun-20 11:30N 51°03' E 002°17'0 0.0
2017-Jun-20 11:00N 51°03' E 002°17'0 0.0
2017-Jun-20 10:30N 51°03' E 002°17'0 0.0
2017-Jun-20 10:00N 51°03' E 002°17'0 0.0
2017-Jun-20 09:30N 51°03' E 002°17'0 0.0
2017-Jun-20 09:00N 51°03' E 002°17'0 0.0
2017-Jun-20 08:30N 51°03' E 002°17'0 0.0
2017-Jun-20 07:57N 51°03' E 002°17'0 0.0
2017-Jun-20 07:30N 51°03' E 002°17'0 0.0
2017-Jun-20 07:00N 51°03' E 002°17'0 0.0
2017-Jun-20 06:30N 51°03' E 002°17'0 0.0
2017-Jun-20 06:00N 51°03' E 002°17'0 0.0
2017-Jun-20 05:30N 51°03' E 002°17'0 0.0
2017-Jun-20 05:00N 51°03' E 002°17'0 0.0
2017-Jun-20 04:30N 51°03' E 002°17'0 0.0
2017-Jun-20 04:00N 51°03' E 002°17'0 0.0
2017-Jun-20 03:27N 51°03' E 002°17'0 0.0
2017-Jun-20 03:00N 51°03' E 002°17'0 0.0
2017-Jun-20 02:30N 51°03' E 002°17'0 0.0
2017-Jun-20 02:00N 51°03' E 002°17'0 0.0
2017-Jun-20 01:30N 51°03' E 002°17'0 0.0
2017-Jun-20 00:57N 51°03' E 002°17'0 0.0
2017-Jun-20 00:30N 51°03' E 002°17'0 0.0
2017-Jun-20 00:00N 51°03' E 002°17'0 0.0
2017-Jun-19 23:30N 51°03' E 002°17'0 0.0
2017-Jun-19 23:00N 51°03' E 002°17'0 0.0
2017-Jun-19 22:30N 51°03' E 002°17'0 0.0
2017-Jun-19 22:00N 51°03' E 002°17'0 0.0
2017-Jun-19 21:30N 51°03' E 002°17'0 0.0
2017-Jun-19 21:00N 51°03' E 002°17'0 0.0
2017-Jun-19 20:30N 51°03' E 002°17'0 0.0
2017-Jun-19 19:57N 51°03' E 002°17'0 0.0
2017-Jun-19 19:30N 51°03' E 002°17'0 0.0
2017-Jun-19 19:00N 51°03' E 002°17'1 2.4
2017-Jun-19 18:30N 51°03' E 002°19'1 2.0
2017-Jun-19 18:00N 51°03' E 002°21'1 2.7
2017-Jun-19 17:30N 51°04' E 002°19'612.1
2017-Jun-19 17:00N 51°03' E 002°09'3 5.1
2017-Jun-19 16:28N 51°00' E 002°11'0 0.0
2017-Jun-19 15:58N 51°00' E 002°11'0 0.0
2017-Jun-19 15:29N 51°00' E 002°11'0 0.0
2017-Jun-19 14:58N 51°00' E 002°11'0 0.0
2017-Jun-19 13:58N 51°00' E 002°11'0 0.0
2017-Jun-19 13:28N 51°00' E 002°11'0 0.0
2017-Jun-19 12:58N 51°00' E 002°11'0 0.0
2017-Jun-19 12:28N 51°00' E 002°11'0 0.0
2017-Jun-19 11:58N 51°00' E 002°11'0 0.0
2017-Jun-19 11:28N 51°00' E 002°11'0 0.0
2017-Jun-19 10:58N 51°00' E 002°11'0 0.0
2017-Jun-19 10:28N 51°00' E 002°11'0 0.0
2017-Jun-19 09:59N 51°00' E 002°11'0 0.0
2017-Jun-19 09:28N 51°00' E 002°11'0 0.0
2017-Jun-19 08:58N 51°00' E 002°11'0 0.0
2017-Jun-19 08:28N 51°00' E 002°11'0 0.0
2017-Jun-19 07:58N 51°00' E 002°11'0 0.0
2017-Jun-19 07:28N 51°00' E 002°11'0 0.0
2017-Jun-19 06:58N 51°00' E 002°11'0 0.0
2017-Jun-19 06:28N 51°00' E 002°11'0 0.0
2017-Jun-19 05:58N 51°00' E 002°11'0 0.0
2017-Jun-19 05:28N 51°00' E 002°11'0 0.0
2017-Jun-19 04:58N 51°00' E 002°11'0 0.0
2017-Jun-19 04:28N 51°00' E 002°11'0 0.0
2017-Jun-19 03:58N 51°00' E 002°11'0 0.0
2017-Jun-19 03:28N 51°00' E 002°11'0 0.0
2017-Jun-19 02:58N 51°00' E 002°11'0 0.0
2017-Jun-19 02:28N 51°00' E 002°11'0 0.0
2017-Jun-19 01:58N 51°00' E 002°11'0 0.0
2017-Jun-19 01:28N 51°00' E 002°11'0 0.0
2017-Jun-19 00:58N 51°00' E 002°11'0 0.0
2017-Jun-19 00:28N 51°00' E 002°11'0 0.0
2017-Jun-18 23:58N 51°00' E 002°11'0 0.0
2017-Jun-18 23:28N 51°00' E 002°11'0 0.0
2017-Jun-18 22:58N 51°00' E 002°11'0 0.0
2017-Jun-18 22:28N 51°00' E 002°11'0 0.0
2017-Jun-18 21:58N 51°00' E 002°11'0 0.0
2017-Jun-18 21:28N 51°00' E 002°11'0 0.0
2017-Jun-18 20:55N 51°00' E 002°11'0 0.0
2017-Jun-18 20:28N 51°00' E 002°11'0 0.0
2017-Jun-18 19:58N 51°00' E 002°11'0 0.0
2017-Jun-18 19:28N 51°00' E 002°11'0 0.0
2017-Jun-18 18:58N 51°00' E 002°11'0 0.0
2017-Jun-18 18:28N 51°00' E 002°11'0 0.0
2017-Jun-18 17:58N 51°00' E 002°11'0 0.0
2017-Jun-18 17:28N 51°00' E 002°11'0 0.0
2017-Jun-18 16:58N 51°00' E 002°11'0 0.0
2017-Jun-18 16:28N 51°00' E 002°11'0 0.0
2017-Jun-18 15:58N 51°00' E 002°11'0 0.0
2017-Jun-18 15:28N 51°00' E 002°11'0 0.0
2017-Jun-18 14:58N 51°00' E 002°11'0 0.0
2017-Jun-18 13:58N 51°00' E 002°11'0 0.0
2017-Jun-18 13:28N 51°00' E 002°11'0 0.0
2017-Jun-18 12:58N 51°00' E 002°11'0 0.0
2017-Jun-18 12:28N 51°00' E 002°11'0 0.0
2017-Jun-18 11:55N 51°00' E 002°11'0 0.0
2017-Jun-18 11:28N 51°00' E 002°11'0 0.0
2017-Jun-18 10:58N 51°00' E 002°11'0 0.0
2017-Jun-18 10:26N 51°00' E 002°11'1 2.9
2017-Jun-18 10:00N 51°02' E 002°10'510.3
2017-Jun-18 09:30N 51°04' E 002°17'2 3.3
2017-Jun-18 08:54N 51°03' E 002°20'1 2.2
2017-Jun-18 08:31N 51°03' E 002°19'0 0.0
2017-Jun-18 07:59N 51°03' E 002°19'0 0.0
2017-Jun-18 07:29N 51°03' E 002°19'0 0.0
2017-Jun-18 06:59N 51°03' E 002°19'0 0.0
2017-Jun-18 06:29N 51°03' E 002°19'0 0.0
2017-Jun-18 05:59N 51°03' E 002°19'0 0.0
2017-Jun-18 05:29N 51°03' E 002°19'0 0.0
2017-Jun-18 04:59N 51°03' E 002°19'0 0.0
2017-Jun-18 04:26N 51°03' E 002°19'0 0.0
2017-Jun-18 03:59N 51°03' E 002°19'0 0.0
2017-Jun-18 03:29N 51°03' E 002°19'0 0.0
2017-Jun-18 02:59N 51°03' E 002°19'0 0.0
2017-Jun-18 02:29N 51°03' E 002°19'0 0.0
2017-Jun-18 01:59N 51°03' E 002°19'0 0.0
2017-Jun-18 01:29N 51°03' E 002°19'0 0.0
2017-Jun-18 00:59N 51°03' E 002°19'0 0.0
2017-Jun-18 00:29N 51°03' E 002°19'0 0.0
2017-Jun-17 23:59N 51°03' E 002°19'0 0.0
2017-Jun-17 23:29N 51°03' E 002°19'0 0.0
2017-Jun-17 22:59N 51°03' E 002°19'0 0.0
2017-Jun-17 22:29N 51°03' E 002°19'0 0.0
2017-Jun-17 21:59N 51°03' E 002°19'0 0.0
2017-Jun-17 21:29N 51°03' E 002°19'0 0.0
2017-Jun-17 20:59N 51°03' E 002°19'0 0.0
2017-Jun-17 20:29N 51°03' E 002°19'0 0.0
2017-Jun-17 19:59N 51°03' E 002°19'0 0.0
2017-Jun-17 19:29N 51°03' E 002°19'0 0.0
2017-Jun-17 18:59N 51°03' E 002°19'0 0.0
2017-Jun-17 18:29N 51°03' E 002°19'0 0.0
2017-Jun-17 17:59N 51°03' E 002°19'0 0.0
2017-Jun-17 17:29N 51°03' E 002°19'0 0.2
2017-Jun-17 17:00N 51°03' E 002°19'1 1.6
2017-Jun-17 16:30N 51°03' E 002°20'0 0.0
2017-Jun-17 16:00N 51°03' E 002°20'1 2.1
2017-Jun-17 15:30N 51°04' E 002°19'612.8
2017-Jun-17 15:00N 51°03' E 002°09'3 2.8
2017-Jun-17 13:59N 51°00' E 002°11'0 0.0
2017-Jun-17 13:29N 51°00' E 002°11'0 0.0
2017-Jun-17 12:59N 51°00' E 002°11'0 0.0
2017-Jun-17 12:28N 51°00' E 002°11'0 0.0
2017-Jun-17 11:58N 51°00' E 002°11'0 0.0
2017-Jun-17 11:29N 51°00' E 002°11'0 0.0
2017-Jun-17 10:59N 51°00' E 002°11'0 0.0
2017-Jun-17 10:28N 51°00' E 002°11'0 0.0
2017-Jun-17 09:58N 51°00' E 002°11'0 0.0
2017-Jun-17 09:29N 51°00' E 002°11'0 0.0
2017-Jun-17 08:58N 51°00' E 002°11'0 0.0
2017-Jun-17 08:29N 51°00' E 002°11'0 0.0
2017-Jun-17 07:58N 51°00' E 002°11'0 0.0
2017-Jun-17 07:29N 51°00' E 002°11'0 0.0
2017-Jun-17 06:59N 51°00' E 002°11'0 0.0
2017-Jun-17 06:29N 51°00' E 002°11'0 0.0
2017-Jun-17 05:59N 51°00' E 002°11'0 0.0
2017-Jun-17 05:29N 51°00' E 002°11'0 0.0
2017-Jun-17 04:59N 51°00' E 002°11'0 0.0
2017-Jun-17 04:28N 51°00' E 002°11'0 0.0
2017-Jun-17 03:59N 51°00' E 002°11'0 0.0
2017-Jun-17 03:28N 51°00' E 002°11'0 0.0
2017-Jun-17 02:55N 51°00' E 002°11'0 0.0
2017-Jun-17 02:29N 51°00' E 002°11'0 0.0
2017-Jun-17 01:59N 51°00' E 002°11'0 0.0
2017-Jun-17 01:28N 51°00' E 002°11'0 0.0
2017-Jun-17 00:58N 51°00' E 002°11'0 0.0
2017-Jun-17 00:28N 51°00' E 002°11'0 0.0
2017-Jun-16 23:58N 51°00' E 002°11'0 0.0
2017-Jun-16 23:28N 51°00' E 002°11'0 0.0
2017-Jun-16 22:58N 51°00' E 002°11'0 0.0
2017-Jun-16 22:25N 51°00' E 002°11'0 0.0
2017-Jun-16 21:55N 51°00' E 002°11'0 0.0
2017-Jun-16 21:28N 51°00' E 002°11'0 0.0
2017-Jun-16 20:58N 51°00' E 002°11'0 0.0
2017-Jun-16 20:26N 51°00' E 002°11'0 0.0
2017-Jun-16 19:58N 51°00' E 002°11'0 0.0
2017-Jun-16 19:28N 51°00' E 002°11'0 0.0
2017-Jun-16 18:58N 51°00' E 002°11'0 0.0
2017-Jun-16 18:10N 51°00' E 002°11'0 0.0
2017-Jun-16 17:55N 51°00' E 002°11'0 0.0
2017-Jun-16 17:28N 51°00' E 002°11'0 0.2
2017-Jun-16 17:00N 51°00' E 002°11'0 0.0
2017-Jun-16 16:30N 51°00' E 002°11'0 0.0
2017-Jun-16 16:00N 51°00' E 002°11'0 0.0
2017-Jun-16 15:30N 51°00' E 002°11'0 0.0
2017-Jun-16 15:00N 51°00' E 002°11'0 0.0
2017-Jun-16 14:00N 51°00' E 002°11'0 0.0
2017-Jun-16 13:30N 51°00' E 002°11'0 0.0
2017-Jun-16 13:00N 51°00' E 002°11'0 0.0
2017-Jun-16 12:30N 51°00' E 002°11'0 0.0
2017-Jun-16 12:00N 51°00' E 002°11'0 0.0
2017-Jun-16 11:30N 51°00' E 002°11'  

Dump ship's entire track history